createdAt,value
2018-09-03T00:00:51.363Z,999.54
2018-09-03T00:02:01.445Z,999.53
2018-09-03T00:03:11.263Z,999.54
2018-09-03T00:04:21.349Z,999.55
2018-09-03T00:05:31.408Z,999.51
2018-09-03T00:06:41.542Z,999.51
2018-09-03T00:07:51.611Z,999.51
2018-09-03T00:09:01.673Z,999.52
2018-09-03T00:10:11.736Z,999.52
2018-09-03T00:11:21.807Z,999.47
2018-09-03T00:12:31.888Z,999.51
2018-09-03T00:13:41.952Z,999.6
2018-09-03T00:14:51.810Z,999.62
2018-09-03T00:16:01.887Z,999.63
2018-09-03T00:17:11.943Z,999.61
2018-09-03T00:18:21.743Z,999.65
2018-09-03T00:19:31.820Z,999.66
2018-09-03T00:20:41.369Z,999.64
2018-09-03T00:21:51.174Z,999.63
2018-09-03T00:23:01.231Z,999.61
2018-09-03T00:24:11.300Z,999.59
2018-09-03T00:25:21.121Z,999.57
2018-09-03T00:26:31.237Z,999.58
2018-09-03T00:27:41.312Z,999.53
2018-09-03T00:28:51.388Z,999.51
2018-09-03T00:30:01.198Z,999.43
2018-09-03T00:31:11.279Z,999.45
2018-09-03T00:32:21.289Z,999.43
2018-09-03T00:33:31.358Z,999.43
2018-09-03T00:34:41.433Z,999.44
2018-09-03T00:35:51.513Z,999.46
2018-09-03T00:37:01.581Z,999.45
2018-09-03T00:38:11.716Z,999.42
2018-09-03T00:39:21.806Z,999.47
2018-09-03T00:40:31.621Z,999.45
2018-09-03T00:41:41.706Z,999.41
2018-09-03T00:42:51.790Z,999.42
2018-09-03T00:44:01.854Z,999.46
2018-09-03T00:45:11.921Z,999.48
2018-09-03T00:46:21.990Z,999.51
2018-09-03T00:47:32.066Z,999.46
2018-09-03T00:48:42.142Z,999.5
2018-09-03T00:49:52.204Z,999.53
2018-09-03T00:51:02.341Z,999.53
2018-09-03T00:52:12.411Z,999.51
2018-09-03T00:53:22.221Z,999.51
2018-09-03T00:54:32.033Z,999.53
2018-09-03T00:55:42.097Z,999.51
2018-09-03T00:56:51.911Z,999.56
2018-09-03T00:58:01.975Z,999.56
2018-09-03T00:59:12.041Z,999.58
2018-09-03T01:00:22.106Z,999.58
2018-09-03T01:01:32.332Z,999.63
2018-09-03T01:02:42.131Z,999.69
2018-09-03T01:03:51.927Z,999.66
2018-09-03T01:05:01.763Z,999.7
2018-09-03T01:06:11.313Z,999.72
2018-09-03T01:07:21.386Z,999.68
2018-09-03T01:08:31.200Z,999.67
2018-09-03T01:09:41.011Z,999.7
2018-09-03T01:10:51.083Z,999.71
2018-09-03T01:12:01.146Z,999.7
2018-09-03T01:13:11.256Z,999.66
2018-09-03T01:14:21.334Z,999.69
2018-09-03T01:15:31.408Z,999.67
2018-09-03T01:16:41.494Z,999.64
2018-09-03T01:17:51.654Z,999.64
2018-09-03T01:19:02.420Z,999.59
2018-09-03T01:20:12.503Z,999.57
2018-09-03T01:21:22.319Z,999.59
2018-09-03T01:22:32.413Z,999.55
2018-09-03T01:23:42.231Z,999.5
2018-09-03T01:24:52.092Z,999.48
2018-09-03T01:26:02.177Z,999.5
2018-09-03T01:27:12.297Z,999.42
2018-09-03T01:28:22.367Z,999.43
2018-09-03T01:29:32.458Z,999.44
2018-09-03T01:30:43.195Z,999.37
2018-09-03T01:31:53.283Z,999.32
2018-09-03T01:33:03.108Z,999.28
2018-09-03T01:34:12.917Z,999.23
2018-09-03T01:35:22.984Z,999.17
2018-09-03T01:36:33.063Z,999.12
2018-09-03T01:37:43.160Z,999.11
2018-09-03T01:38:53.229Z,999.11
2018-09-03T01:40:03.335Z,999.04
2018-09-03T01:41:13.143Z,999.05
2018-09-03T01:42:23.346Z,998.98
2018-09-03T01:43:33.402Z,999.03
2018-09-03T01:44:43.223Z,998.98
2018-09-03T01:45:53.310Z,998.92
2018-09-03T01:47:03.405Z,998.88
2018-09-03T01:48:12.957Z,998.88
2018-09-03T01:49:23.036Z,998.8
2018-09-03T01:50:33.118Z,998.74
2018-09-03T01:51:43.194Z,998.77
2018-09-03T01:52:53.287Z,998.75
2018-09-03T01:54:02.832Z,998.76
2018-09-03T01:55:12.368Z,998.72
2018-09-03T01:56:21.920Z,998.66
2018-09-03T01:57:31.990Z,998.65
2018-09-03T01:58:42.071Z,998.61
2018-09-03T01:59:52.136Z,998.62
2018-09-03T02:01:02.228Z,998.59
2018-09-03T02:02:11.864Z,998.61
2018-09-03T02:03:21.955Z,998.62
2018-09-03T02:04:31.763Z,998.61
2018-09-03T02:05:41.852Z,998.54
2018-09-03T02:06:51.661Z,998.54
2018-09-03T02:08:01.720Z,998.56
2018-09-03T02:09:11.800Z,998.53
2018-09-03T02:10:21.614Z,998.48
2018-09-03T02:11:31.231Z,998.43
2018-09-03T02:12:41.047Z,998.41
2018-09-03T02:13:50.581Z,998.4
2018-09-03T02:15:00.140Z,998.4
2018-09-03T02:16:10.207Z,998.43
2018-09-03T02:17:20.508Z,998.43
2018-09-03T02:18:30.591Z,998.48
2018-09-03T02:19:40.400Z,998.44
2018-09-03T02:20:50.471Z,998.5
2018-09-03T02:22:00.025Z,998.51
2018-09-03T02:23:10.103Z,998.48
2018-09-03T02:24:20.165Z,998.48
2018-09-03T02:25:30.247Z,998.45
2018-09-03T02:26:40.318Z,998.48
2018-09-03T02:27:49.868Z,998.47
2018-09-03T02:28:59.936Z,998.45
2018-09-03T02:30:10.018Z,998.38
2018-09-03T02:31:20.099Z,998.35
2018-09-03T02:32:30.179Z,998.3
2018-09-03T02:33:40.240Z,998.24
2018-09-03T02:34:50.357Z,998.22
2018-09-03T02:35:59.894Z,998.18
2018-09-03T02:37:09.969Z,998.19
2018-09-03T02:38:19.771Z,998.22
2018-09-03T02:39:29.857Z,998.16
2018-09-03T02:40:39.981Z,998.14
2018-09-03T02:41:50.067Z,998.08
2018-09-03T02:42:59.869Z,998.03
2018-09-03T02:44:09.956Z,998.02
2018-09-03T02:45:19.762Z,997.97
2018-09-03T02:46:29.856Z,997.99
2018-09-03T02:47:39.660Z,997.96
2018-09-03T02:48:49.500Z,997.99
2018-09-03T02:49:59.296Z,997.96
2018-09-03T02:51:09.364Z,997.99
2018-09-03T02:52:19.226Z,998
2018-09-03T02:53:29.289Z,998.03
2018-09-03T02:54:39.361Z,998.06
2018-09-03T02:55:49.431Z,998.03
2018-09-03T02:56:59.493Z,998.04
2018-09-03T02:58:09.350Z,998
2018-09-03T02:59:19.162Z,997.95
2018-09-03T03:00:29.020Z,997.9
2018-09-03T03:01:39.120Z,997.85
2018-09-03T03:02:48.674Z,997.84
2018-09-03T03:35:02.656Z,998.4
2018-09-03T03:36:12.453Z,998.39
2018-09-03T03:37:22.524Z,998.39
2018-09-03T03:38:32.337Z,998.33
2018-09-03T03:39:42.387Z,998.33
2018-09-03T03:40:52.473Z,998.39
2018-09-03T03:42:02.553Z,998.4
2018-09-03T03:43:12.617Z,998.4
2018-09-03T03:44:22.688Z,998.39
2018-09-03T03:45:32.756Z,998.38
2018-09-03T03:46:42.618Z,998.39
2018-09-03T03:47:52.694Z,998.32
2018-09-03T03:49:02.517Z,998.24
2018-09-03T03:50:12.590Z,998.17
2018-09-03T03:51:22.708Z,998.1
2018-09-03T03:52:32.952Z,998.13
2018-09-03T03:53:43.028Z,998.16
2018-09-03T03:54:53.133Z,998.25
2018-09-03T03:56:02.821Z,998.25
2018-09-03T03:57:12.633Z,998.24
2018-09-03T03:58:22.756Z,998.26
2018-09-03T03:59:32.853Z,998.27
2018-09-03T04:00:42.927Z,998.27
2018-09-03T04:01:53.257Z,998.28
2018-09-03T04:03:03.342Z,998.21
2018-09-03T04:04:14.424Z,998.13
2018-09-03T04:05:24.492Z,998.12
2018-09-03T04:06:34.589Z,998.09
2018-09-03T04:07:44.653Z,998.07
2018-09-03T04:08:54.733Z,998.09
2018-09-03T04:10:04.796Z,998.07
2018-09-03T04:11:14.884Z,998.1
2018-09-03T04:12:24.717Z,998.12
2018-09-03T04:13:34.775Z,998.14
2018-09-03T04:14:44.577Z,998.12
2018-09-03T04:15:54.702Z,998.15
2018-09-03T04:17:04.786Z,998.11
2018-09-03T04:18:14.875Z,998.11
2018-09-03T04:19:24.967Z,998.13
2018-09-03T04:20:35.029Z,998.1
2018-09-03T04:21:44.581Z,998.09
2018-09-03T04:22:54.402Z,998.14
2018-09-03T04:24:04.748Z,998.19
2018-09-03T04:25:14.841Z,998.27
2018-09-03T04:26:24.664Z,998.3
2018-09-03T04:27:34.742Z,998.3
2018-09-03T04:28:44.845Z,998.31
2018-09-03T04:29:55.384Z,998.26
2018-09-03T04:31:05.559Z,998.28
2018-09-03T04:32:15.625Z,998.19
2018-09-03T04:33:25.432Z,998.24
2018-09-03T04:34:35.510Z,998.22
2018-09-03T04:35:45.598Z,998.26
2018-09-03T04:36:55.428Z,998.24
2018-09-03T04:38:05.238Z,998.27
2018-09-03T04:39:15.044Z,998.28
2018-09-03T04:40:24.617Z,998.3
2018-09-03T04:41:34.177Z,998.3
2018-09-03T04:42:44.281Z,998.35
2018-09-03T04:43:54.363Z,998.32
2018-09-03T04:45:04.497Z,998.34
2018-09-03T04:46:14.578Z,998.34
2018-09-03T04:47:24.398Z,998.32
2018-09-03T04:48:34.465Z,998.33
2018-09-03T04:49:44.032Z,998.37
2018-09-03T04:50:54.102Z,998.36
2018-09-03T04:52:03.919Z,998.42
2018-09-03T04:53:14.007Z,998.45
2018-09-03T04:54:23.831Z,998.42
2018-09-03T04:55:33.741Z,998.45
2018-09-03T04:56:43.864Z,998.46
2018-09-03T04:57:53.940Z,998.46
2018-09-03T04:59:04.019Z,998.48
2018-09-03T05:00:14.097Z,998.44
2018-09-03T05:01:23.908Z,998.38
2018-09-03T05:02:34.026Z,998.33
2018-09-03T05:03:44.121Z,998.31
2018-09-03T05:04:54.204Z,998.3
2018-09-03T05:06:03.869Z,998.36
2018-09-03T05:07:14.063Z,998.39
2018-09-03T05:08:23.945Z,998.35
2018-09-03T05:09:33.768Z,998.38
2018-09-03T05:10:43.832Z,998.41
2018-09-03T05:11:53.910Z,998.42
2018-09-03T05:13:04.380Z,998.44
2018-09-03T05:14:14.192Z,998.44
2018-09-03T05:15:24.293Z,998.47
2018-09-03T05:16:34.375Z,998.47
2018-09-03T05:17:44.199Z,998.46
2018-09-03T05:18:54.025Z,998.49
2018-09-03T05:20:03.826Z,998.5
2018-09-03T05:21:13.984Z,998.47
2018-09-03T05:22:23.827Z,998.49
2018-09-03T05:23:33.910Z,998.49
2018-09-03T05:24:43.719Z,998.53
2018-09-03T05:25:53.538Z,998.49
2018-09-03T05:27:03.625Z,998.46
2018-09-03T05:28:13.723Z,998.5
2018-09-03T05:29:23.810Z,998.46
2018-09-03T05:30:33.910Z,998.41
2018-09-03T05:31:44.038Z,998.4
2018-09-03T05:32:54.113Z,998.4
2018-09-03T05:34:04.197Z,998.36
2018-09-03T05:35:14.253Z,998.31
2018-09-03T05:36:24.327Z,998.35
2018-09-03T05:37:34.223Z,998.31
2018-09-03T05:38:44.072Z,998.35
2018-09-03T05:39:53.915Z,998.36
2018-09-03T05:41:03.745Z,998.35
2018-09-03T05:42:13.851Z,998.4
2018-09-03T05:43:24.106Z,998.37
2018-09-03T05:44:35.933Z,998.34
2018-09-03T05:45:45.761Z,998.33
2018-09-03T05:46:55.832Z,998.27
2018-09-03T05:48:05.661Z,998.27
2018-09-03T05:49:15.789Z,998.25
2018-09-03T05:50:26.036Z,998.28
2018-09-03T05:51:36.634Z,998.29
2018-09-03T05:52:46.718Z,998.29
2018-09-03T05:53:56.813Z,998.27
2018-09-03T05:55:06.942Z,998.25
2018-09-03T05:56:16.784Z,998.23
2018-09-03T05:57:26.866Z,998.17
2018-09-03T05:58:36.688Z,998.17
2018-09-03T05:59:46.757Z,998.18
2018-09-03T06:00:56.838Z,998.17
2018-09-03T06:02:06.651Z,998.16
2018-09-03T06:03:16.749Z,998.11
2018-09-03T06:04:26.868Z,998.1
2018-09-03T06:05:36.936Z,998.1
2018-09-03T06:06:46.994Z,998.11
2018-09-03T06:07:57.079Z,998.08
2018-09-03T06:09:07.164Z,998.08
2018-09-03T06:10:17.257Z,998.03
2018-09-03T06:11:27.144Z,998.01
2018-09-03T06:12:36.966Z,998
2018-09-03T06:13:47.116Z,998.05
2018-09-03T06:14:57.206Z,998.06
2018-09-03T06:16:07.069Z,998.05
2018-09-03T06:17:17.162Z,998.04
2018-09-03T06:18:27.246Z,998.03
2018-09-03T06:19:37.348Z,997.98
2018-09-03T06:20:47.166Z,997.98
2018-09-03T06:21:56.977Z,997.99
2018-09-03T06:23:06.810Z,998
2018-09-03T06:24:16.896Z,997.94
2018-09-03T06:25:26.983Z,997.94
2018-09-03T06:26:37.082Z,997.93
2018-09-03T06:27:47.558Z,997.9
2018-09-03T06:28:57.113Z,997.89
2018-09-03T06:30:06.937Z,997.93
2018-09-03T06:31:17.013Z,997.92
2018-09-03T06:32:27.113Z,997.92
2018-09-03T06:33:37.195Z,997.9
2018-09-03T06:34:46.743Z,997.94
2018-09-03T06:35:56.929Z,998
2018-09-03T06:37:06.962Z,998.02
2018-09-03T06:38:17.104Z,997.99
2018-09-03T06:39:27.184Z,998
2018-09-03T06:40:37.266Z,998.01
2018-09-03T06:41:47.388Z,998.01
2018-09-03T06:42:57.456Z,998.03
2018-09-03T06:44:07.526Z,998.03
2018-09-03T06:45:17.602Z,998.03
2018-09-03T06:46:27.406Z,998.03
2018-09-03T06:47:37.539Z,998.01
2018-09-03T06:48:47.632Z,998.01
2018-09-03T06:49:57.716Z,997.98
2018-09-03T06:51:07.807Z,997.96
2018-09-03T06:52:17.872Z,998
2018-09-03T06:53:28.025Z,997.96
2018-09-03T06:54:38.134Z,997.98
2018-09-03T06:55:48.224Z,997.97
2018-09-03T06:56:58.054Z,997.94
2018-09-03T06:58:08.135Z,997.91
2018-09-03T06:59:18.214Z,997.94
2018-09-03T07:00:28.116Z,997.96
2018-09-03T07:01:38.195Z,998.01
2018-09-03T07:02:48.281Z,998
2018-09-03T07:03:58.365Z,998
2018-09-03T07:05:08.459Z,997.97
2018-09-03T07:06:18.555Z,997.98
2018-09-03T07:07:28.640Z,997.98
2018-09-03T07:08:38.738Z,998.02
2018-09-03T07:09:48.813Z,998
2018-09-03T07:10:58.878Z,997.97
2018-09-03T07:12:08.980Z,997.91
2018-09-03T07:13:18.793Z,997.88
2018-09-03T07:14:28.864Z,997.89
2018-09-03T07:15:38.692Z,997.84
2018-09-03T07:16:48.761Z,997.86
2018-09-03T07:17:58.831Z,997.95
2018-09-03T07:19:09.014Z,997.97
2018-09-03T07:20:18.853Z,997.98
2018-09-03T07:21:28.940Z,997.95
2018-09-03T07:22:39.015Z,997.95
2018-09-03T07:23:49.091Z,997.97
2018-09-03T07:24:59.239Z,997.97
2018-09-03T07:26:09.088Z,997.96
2018-09-03T07:27:19.190Z,998
2018-09-03T07:28:29.264Z,997.98
2018-09-03T07:29:39.107Z,997.95
2018-09-03T07:30:49.195Z,997.99
2018-09-03T07:31:59.077Z,998.01
2018-09-03T07:33:09.157Z,997.98
2018-09-03T07:34:19.505Z,997.95
2018-09-03T07:35:29.374Z,997.98
2018-09-03T07:36:39.009Z,997.96
2018-09-03T07:37:49.110Z,997.97
2018-09-03T07:38:59.182Z,997.95
2018-09-03T07:40:08.997Z,998
2018-09-03T07:41:18.824Z,997.95
2018-09-03T07:42:28.637Z,997.97
2018-09-03T07:43:38.732Z,998.02
2018-09-03T07:44:48.856Z,998
2018-09-03T07:45:58.935Z,997.98
2018-09-03T07:47:09.005Z,997.98
2018-09-03T07:48:18.817Z,998.01
2018-09-03T07:49:28.386Z,998.08
2018-09-03T07:50:38.490Z,998.13
2018-09-03T07:51:48.573Z,998.09
2018-09-03T07:52:58.691Z,998.1
2018-09-03T07:54:08.775Z,998.11
2018-09-03T07:55:18.640Z,998.09
2018-09-03T07:56:28.724Z,998.09
2018-09-03T07:57:38.280Z,998.08
2018-09-03T07:58:48.096Z,998.05
2018-09-03T07:59:58.164Z,998.04
2018-09-03T08:01:08.292Z,998.01
2018-09-03T08:02:18.757Z,998.06
2018-09-03T08:03:28.820Z,998.05
2018-09-03T08:04:38.904Z,998.1
2018-09-03T08:05:48.980Z,998.06
2018-09-03T08:06:58.795Z,998.09
2018-09-03T08:08:08.865Z,998.13
2018-09-03T08:09:18.989Z,998.11
2018-09-03T08:10:29.058Z,998.13
2018-09-03T08:11:38.883Z,998.16
2018-09-03T08:12:48.960Z,998.13
2018-09-03T08:13:59.379Z,998.08
2018-09-03T08:15:09.460Z,998.08
2018-09-03T08:16:19.541Z,998
2018-09-03T08:17:29.690Z,998.02
2018-09-03T08:18:39.515Z,998.01
2018-09-03T08:19:49.100Z,997.99
2018-09-03T08:20:59.288Z,997.99
2018-09-03T08:22:09.137Z,997.94
2018-09-03T08:23:19.231Z,997.93
2018-09-03T08:24:29.354Z,997.89
2018-09-03T08:25:39.435Z,997.88
2018-09-03T08:26:49.533Z,997.92
2018-09-03T08:27:59.669Z,997.95
2018-09-03T08:29:09.630Z,997.99
2018-09-03T08:30:19.751Z,997.98
2018-09-03T08:31:29.364Z,998.02
2018-09-03T08:32:39.568Z,998.01
2018-09-03T08:33:49.702Z,998.03
2018-09-03T08:34:59.550Z,998
2018-09-03T08:36:09.705Z,997.99
2018-09-03T08:37:19.529Z,998
2018-09-03T08:38:29.341Z,997.96
2018-09-03T08:39:39.434Z,997.93
2018-09-03T08:40:49.633Z,997.92
2018-09-03T08:41:59.711Z,997.93
2018-09-03T08:43:09.826Z,997.93
2018-09-03T08:44:19.916Z,997.92
2018-09-03T08:45:30.044Z,997.94
2018-09-03T08:46:40.158Z,997.92
2018-09-03T08:47:50.245Z,997.88
2018-09-03T08:49:00.339Z,997.95
2018-09-03T08:50:10.448Z,998
2018-09-03T08:51:20.718Z,998.02
2018-09-03T08:52:30.823Z,998.05
2018-09-03T08:53:40.921Z,998.08
2018-09-03T08:54:51.019Z,998.12
2018-09-03T08:56:01.126Z,998.14
2018-09-03T08:57:10.957Z,998.16
2018-09-03T08:58:21.112Z,998.15
2018-09-03T08:59:30.985Z,998.19
2018-09-03T09:00:40.830Z,998.16
2018-09-03T09:01:50.958Z,998.1
2018-09-03T09:03:01.044Z,998.11
2018-09-03T09:04:11.177Z,998.1
2018-09-03T09:05:21.024Z,998.04
2018-09-03T09:06:31.190Z,998.04
2018-09-03T09:07:41.280Z,998
2018-09-03T09:08:51.360Z,997.97
2018-09-03T09:10:01.301Z,997.98
2018-09-03T09:11:11.133Z,997.97
2018-09-03T09:12:21.253Z,997.97
2018-09-03T09:13:31.143Z,997.91
2018-09-03T09:14:41.247Z,997.9
2018-09-03T09:15:51.355Z,997.9
2018-09-03T09:17:01.440Z,997.98
2018-09-03T09:18:11.274Z,997.94
2018-09-03T09:19:21.389Z,997.96
2018-09-03T09:20:31.483Z,997.94
2018-09-03T09:21:41.647Z,998.01
2018-09-03T09:22:51.735Z,998.03
2018-09-03T09:24:01.827Z,998.03
2018-09-03T09:25:11.943Z,998
2018-09-03T09:26:22.057Z,997.99
2018-09-03T09:27:32.157Z,998
2018-09-03T09:28:42.252Z,998
2018-09-03T09:29:52.106Z,998.01
2018-09-03T09:31:02.213Z,998.03
2018-09-03T09:32:12.043Z,997.97
2018-09-03T09:33:22.210Z,998
2018-09-03T09:34:32.076Z,997.95
2018-09-03T09:35:42.213Z,997.92
2018-09-03T09:36:52.415Z,997.9
2018-09-03T09:38:02.273Z,997.87
2018-09-03T09:39:12.387Z,997.88
2018-09-03T09:40:22.489Z,997.91
2018-09-03T09:41:32.594Z,997.88
2018-09-03T09:42:42.440Z,997.85
2018-09-03T09:43:52.580Z,997.84
2018-09-03T09:45:02.525Z,997.86
2018-09-03T09:46:12.641Z,997.89
2018-09-03T09:47:22.506Z,997.81
2018-09-03T09:48:32.631Z,997.83
2018-09-03T09:49:42.991Z,997.8
2018-09-03T09:50:53.140Z,997.79
2018-09-03T09:52:03.352Z,997.77
2018-09-03T09:53:13.459Z,997.73
2018-09-03T09:54:23.553Z,997.7
2018-09-03T09:55:33.687Z,997.73
2018-09-03T09:56:43.537Z,997.74
2018-09-03T09:57:53.626Z,997.75
2018-09-03T09:59:03.759Z,997.73
2018-09-03T10:00:13.839Z,997.69
2018-09-03T10:01:23.921Z,997.66
2018-09-03T10:02:34.044Z,997.6
2018-09-03T10:03:43.868Z,997.62
2018-09-03T10:04:53.959Z,997.64
2018-09-03T10:06:04.084Z,997.66
2018-09-03T10:07:13.962Z,997.72
2018-09-03T10:08:23.851Z,997.68
2018-09-03T10:09:33.707Z,997.72
2018-09-03T10:10:43.282Z,997.71
2018-09-03T10:11:53.395Z,997.68
2018-09-03T10:13:03.498Z,997.7
2018-09-03T10:14:13.639Z,997.73
2018-09-03T10:15:23.484Z,997.75
2018-09-03T10:16:33.571Z,997.76
2018-09-03T10:17:43.672Z,997.73
2018-09-03T10:18:53.772Z,997.79
2018-09-03T10:20:03.689Z,997.73
2018-09-03T10:21:13.802Z,997.7
2018-09-03T10:22:23.915Z,997.7
2018-09-03T10:23:34.028Z,997.75
2018-09-03T10:24:44.118Z,997.78
2018-09-03T10:25:54.306Z,997.8
2018-09-03T10:27:04.395Z,997.72
2018-09-03T10:28:14.493Z,997.74
2018-09-03T10:29:24.592Z,997.72
2018-09-03T10:30:34.707Z,997.72
2018-09-03T10:31:44.877Z,997.7
2018-09-03T10:32:55.232Z,997.61
2018-09-03T10:34:05.075Z,997.61
2018-09-03T10:35:15.171Z,997.52
2018-09-03T10:36:25.297Z,997.51
2018-09-03T10:37:35.400Z,997.54
2018-09-03T10:38:45.506Z,997.49
2018-09-03T10:39:55.326Z,997.46
2018-09-03T10:41:05.443Z,997.43
2018-09-03T10:42:15.548Z,997.47
2018-09-03T10:43:25.665Z,997.38
2018-09-03T10:44:35.516Z,997.39
2018-09-03T10:45:45.360Z,997.32
2018-09-03T10:46:55.553Z,997.29
2018-09-03T10:48:05.671Z,997.29
2018-09-03T10:49:15.836Z,997.29
2018-09-03T10:50:25.951Z,997.32
2018-09-03T10:51:36.048Z,997.28
2018-09-03T10:52:46.275Z,997.29
2018-09-03T10:53:56.132Z,997.24
2018-09-03T10:55:05.991Z,997.18
2018-09-03T10:56:15.580Z,997.18
2018-09-03T10:57:25.809Z,997.15
2018-09-03T10:58:35.649Z,997.11
2018-09-03T10:59:45.778Z,997.07
2018-09-03T11:00:55.873Z,997.11
2018-09-03T11:02:05.732Z,997.06
2018-09-03T11:03:15.860Z,997.02
2018-09-03T11:04:25.711Z,997.04
2018-09-03T11:05:35.806Z,997.04
2018-09-03T11:06:45.931Z,997.06
2018-09-03T11:07:56.014Z,997.07
2018-09-03T11:09:06.157Z,997.08
2018-09-03T11:10:15.988Z,997.13
2018-09-03T11:11:26.083Z,997.11
2018-09-03T11:12:35.944Z,997.12
2018-09-03T11:13:45.778Z,997.08
2018-09-03T11:14:55.635Z,997.09
2018-09-03T11:16:05.750Z,997.09
2018-09-03T11:17:15.585Z,997.1
2018-09-03T11:18:25.715Z,997.07
2018-09-03T11:19:35.833Z,997.06
2018-09-03T11:20:45.992Z,997.07
2018-09-03T11:21:56.189Z,997.06
2018-09-03T11:23:06.279Z,997
2018-09-03T11:24:16.395Z,997
2018-09-03T11:25:26.498Z,996.92
2018-09-03T11:26:36.610Z,996.95
2018-09-03T11:27:46.720Z,996.97
2018-09-03T11:28:56.553Z,996.92
2018-09-03T11:30:06.689Z,996.92
2018-09-03T11:31:16.779Z,996.93
2018-09-03T11:32:26.610Z,996.94
2018-09-03T11:33:36.750Z,996.96
2018-09-03T11:34:46.860Z,996.95
2018-09-03T11:35:57.087Z,996.91
2018-09-03T11:37:07.235Z,996.92
2018-09-03T11:38:17.339Z,996.9
2018-09-03T11:39:27.431Z,996.88
2018-09-03T11:40:37.560Z,996.81
2018-09-03T11:41:47.542Z,996.8
2018-09-03T11:42:57.382Z,996.79
2018-09-03T11:44:07.500Z,996.79
2018-09-03T11:45:17.584Z,996.72
2018-09-03T11:46:27.676Z,996.72
2018-09-03T11:47:37.513Z,996.71
2018-09-03T11:48:47.615Z,996.75
2018-09-03T11:49:57.720Z,996.75
2018-09-03T11:51:08.035Z,996.75
2018-09-03T11:52:18.139Z,996.78
2018-09-03T11:53:27.968Z,996.78
2018-09-03T11:54:38.135Z,996.76
2018-09-03T11:55:48.054Z,996.77
2018-09-03T11:56:58.169Z,996.79
2018-09-03T11:58:08.286Z,996.77
2018-09-03T11:59:18.443Z,996.75
2018-09-03T12:00:28.548Z,996.72
2018-09-03T12:01:39.111Z,996.7
2018-09-03T12:02:49.213Z,996.64
2018-09-03T12:03:58.794Z,996.64
2018-09-03T12:05:08.775Z,996.63
2018-09-03T12:06:18.346Z,996.7
2018-09-03T12:07:28.500Z,996.71
2018-09-03T12:08:38.612Z,996.7
2018-09-03T12:09:48.441Z,996.76
2018-09-03T12:10:58.592Z,996.73
2018-09-03T12:12:08.713Z,996.73
2018-09-03T12:13:18.842Z,996.7
2018-09-03T12:14:28.972Z,996.75
2018-09-03T12:15:39.087Z,996.71
2018-09-03T12:16:49.212Z,996.74
2018-09-03T12:17:59.343Z,996.74
2018-09-03T12:19:09.437Z,996.76
2018-09-03T12:20:19.526Z,996.75
2018-09-03T12:21:29.649Z,996.81
2018-09-03T12:22:39.870Z,996.82
2018-09-03T12:23:49.996Z,996.81
2018-09-03T12:25:00.093Z,996.8
2018-09-03T12:26:09.724Z,996.78
2018-09-03T12:27:19.566Z,996.72
2018-09-03T12:28:29.759Z,996.72
2018-09-03T12:29:39.602Z,996.65
2018-09-03T12:30:49.464Z,996.67
2018-09-03T12:31:59.273Z,996.61
2018-09-03T12:33:09.368Z,996.56
2018-09-03T12:34:19.542Z,996.51
2018-09-03T12:35:29.676Z,996.48
2018-09-03T12:36:39.784Z,996.43
2018-09-03T12:37:49.676Z,996.36
2018-09-03T12:38:59.772Z,996.31
2018-09-03T12:40:09.910Z,996.28
2018-09-03T12:41:20.011Z,996.23
2018-09-03T12:42:29.834Z,996.21
2018-09-03T12:43:39.680Z,996.18
2018-09-03T12:44:49.795Z,996.28
2018-09-03T12:45:59.695Z,996.3
2018-09-03T12:47:09.610Z,996.3
2018-09-03T12:48:19.709Z,996.34
2018-09-03T12:49:29.819Z,996.38
2018-09-03T12:50:39.923Z,996.36
2018-09-03T12:51:49.512Z,996.37
2018-09-03T12:52:59.352Z,996.37
2018-09-03T12:54:09.452Z,996.34
2018-09-03T12:55:19.544Z,996.33
2018-09-03T12:56:29.382Z,996.32
2018-09-03T12:57:39.573Z,996.27
2018-09-03T12:58:49.802Z,996.23
2018-09-03T13:00:05.146Z,996.21
2018-09-03T13:01:15.758Z,996.21
2018-09-03T13:02:25.880Z,996.22
2018-09-03T13:03:42.680Z,996.18
2018-09-03T13:04:52.555Z,996.19
2018-09-03T13:06:02.692Z,996.17
2018-09-03T13:07:12.999Z,996.21
2018-09-03T13:08:23.142Z,996.21
2018-09-03T13:09:33.260Z,996.22
2018-09-03T13:10:43.375Z,996.19
2018-09-03T13:11:53.455Z,996.21
2018-09-03T13:13:03.375Z,996.17
2018-09-03T13:14:13.488Z,996.18
2018-09-03T13:15:23.577Z,996.19
2018-09-03T13:16:33.413Z,996.17
2018-09-03T13:17:43.506Z,996.2
2018-09-03T13:18:53.149Z,996.18
2018-09-03T13:20:03.650Z,996.11
2018-09-03T13:21:13.747Z,996.14
2018-09-03T13:22:23.849Z,996.13
2018-09-03T13:23:33.706Z,996.13
2018-09-03T13:24:43.860Z,996.15
2018-09-03T13:25:53.924Z,996.15
2018-09-03T13:27:04.012Z,996.16
2018-09-03T13:28:14.146Z,996.17
2018-09-03T13:29:23.978Z,996.18
2018-09-03T13:30:34.059Z,996.14
2018-09-03T13:31:43.691Z,996.16
2018-09-03T13:32:53.801Z,996.15
2018-09-03T13:34:03.921Z,996.19
2018-09-03T13:35:13.472Z,996.22
2018-09-03T13:36:23.559Z,996.24
2018-09-03T13:37:33.659Z,996.22
2018-09-03T13:38:43.776Z,996.23
2018-09-03T13:39:53.630Z,996.23
2018-09-03T13:41:03.528Z,996.22
2018-09-03T13:42:13.398Z,996.18
2018-09-03T13:43:23.838Z,996.13
2018-09-03T13:44:33.944Z,996.16
2018-09-03T13:45:44.075Z,996.17
2018-09-03T13:46:54.191Z,996.15
2018-09-03T13:48:04.329Z,996.11
2018-09-03T13:49:14.598Z,996.08
2018-09-03T13:50:24.824Z,996.11
2018-09-03T13:51:34.933Z,996.09
2018-09-03T13:52:44.759Z,996.09
2018-09-03T13:53:54.916Z,996.08
2018-09-03T13:55:04.796Z,996.07
2018-09-03T13:56:15.102Z,996.03
2018-09-03T13:57:25.022Z,996
2018-09-03T13:58:35.109Z,995.94
2018-09-03T13:59:45.195Z,995.94
2018-09-03T14:00:55.046Z,995.94
2018-09-03T14:02:05.146Z,995.94
2018-09-03T14:03:15.243Z,995.95
2018-09-03T14:04:25.165Z,995.99
2018-09-03T14:05:35.262Z,995.93
2018-09-03T14:06:45.372Z,995.95
2018-09-03T14:07:55.509Z,995.93
2018-09-03T14:09:05.691Z,995.96
2018-09-03T14:10:15.973Z,995.96
2018-09-03T14:11:26.117Z,995.94
2018-09-03T14:12:36.417Z,995.9
2018-09-03T14:13:46.527Z,995.91
2018-09-03T14:14:56.420Z,995.86
2018-09-03T14:16:06.221Z,995.78
2018-09-03T14:17:16.078Z,995.8
2018-09-03T14:18:26.204Z,995.77
2018-09-03T14:19:36.312Z,995.78
2018-09-03T14:20:46.236Z,995.79
2018-09-03T14:21:56.314Z,995.73
2018-09-03T14:23:06.537Z,995.77
2018-09-03T14:24:16.606Z,995.76
2018-09-03T14:25:26.688Z,995.73
2018-09-03T14:26:36.824Z,995.78
2018-09-03T14:27:46.706Z,995.73
2018-09-03T14:28:56.815Z,995.72
2018-09-03T14:30:06.376Z,995.73
2018-09-03T14:31:16.457Z,995.74
2018-09-03T14:32:26.281Z,995.7
2018-09-03T14:33:36.414Z,995.68
2018-09-03T14:34:46.503Z,995.67
2018-09-03T14:35:56.583Z,995.63
2018-09-03T14:37:06.486Z,995.67
2018-09-03T14:38:16.843Z,995.66
2018-09-03T14:39:26.716Z,995.63
2018-09-03T14:40:36.839Z,995.64
2018-09-03T14:41:46.664Z,995.64
2018-09-03T14:42:56.755Z,995.65
2018-09-03T14:44:07.046Z,995.6
2018-09-03T14:45:16.678Z,995.59
2018-09-03T14:46:27.240Z,995.64
2018-09-03T14:47:37.331Z,995.6
2018-09-03T14:48:47.444Z,995.56
2018-09-03T14:49:57.560Z,995.6
2018-09-03T14:51:07.715Z,995.6
2018-09-03T14:52:17.544Z,995.61
2018-09-03T14:53:27.659Z,995.62
2018-09-03T14:54:37.752Z,995.63
2018-09-03T14:55:47.862Z,995.62
2018-09-03T14:56:57.975Z,995.64
2018-09-03T14:58:08.057Z,995.65
2018-09-03T14:59:18.170Z,995.63
2018-09-03T15:00:28.298Z,995.64
2018-09-03T15:01:38.401Z,995.63
2018-09-03T15:02:48.507Z,995.61
2018-09-03T15:03:58.639Z,995.65
2018-09-03T15:05:09.014Z,995.63
2018-09-03T15:06:19.140Z,995.66
2018-09-03T15:07:29.232Z,995.67
2018-09-03T15:08:39.343Z,995.71
2018-09-03T15:09:49.279Z,995.68